createdAt,value
2022-08-08T00:00:53.877Z,17.70
2022-08-08T00:03:20.111Z,17.35
2022-08-08T00:06:03.673Z,19.17
2022-08-08T00:08:49.245Z,16.95
2022-08-08T00:11:27.919Z,16.77
2022-08-08T00:14:56.879Z,17.48
2022-08-08T00:17:48.054Z,18.13
2022-08-08T00:20:27.906Z,18.48
2022-08-08T00:23:06.301Z,18.50
2022-08-08T00:25:46.805Z,17.58
2022-08-08T00:28:35.417Z,19.48
2022-08-08T00:32:20.178Z,16.95
2022-08-08T00:35:04.068Z,17.70
2022-08-08T00:37:56.826Z,18.55
2022-08-08T00:41:54.626Z,17.58
2022-08-08T00:45:38.830Z,17.40
2022-08-08T00:48:59.470Z,18.25
2022-08-08T00:52:20.264Z,17.83
2022-08-08T00:55:18.922Z,18.08
2022-08-08T00:58:54.557Z,18.83
2022-08-08T01:01:37.842Z,20.42
2022-08-08T01:04:47.414Z,19.30
2022-08-08T01:08:05.379Z,19.95
2022-08-08T01:11:30.425Z,20.80
2022-08-08T01:14:53.998Z,20.60
2022-08-08T01:18:25.528Z,20.98
2022-08-08T01:22:09.950Z,19.17
2022-08-08T01:25:01.154Z,24.48
2022-08-08T01:28:02.315Z,20.40
2022-08-08T01:32:06.471Z,20.55
2022-08-08T01:35:11.256Z,20.67
2022-08-08T01:38:09.355Z,21.42
2022-08-08T01:40:50.105Z,19.98
2022-08-08T01:43:38.658Z,20.55
2022-08-08T01:46:41.070Z,20.23
2022-08-08T01:49:23.463Z,20.27
2022-08-08T01:54:07.450Z,20.02
2022-08-08T01:56:27.722Z,19.90
2022-08-08T01:58:38.646Z,21.98
2022-08-08T02:01:21.618Z,21.17
2022-08-08T02:04:03.595Z,20.60
2022-08-08T02:07:05.322Z,20.60
2022-08-08T02:10:01.787Z,20.55
2022-08-08T02:12:42.228Z,20.17
2022-08-08T02:15:18.695Z,19.30
2022-08-08T02:17:59.717Z,19.58
2022-08-08T02:21:01.551Z,19.35
2022-08-08T02:23:32.054Z,20.48
2022-08-08T02:26:12.632Z,19.23
2022-08-08T02:29:01.904Z,21.40
2022-08-08T02:32:22.273Z,19.92
2022-08-08T02:35:24.199Z,20.15
2022-08-08T02:38:39.448Z,19.05
2022-08-08T02:41:59.029Z,17.75
2022-08-08T02:45:18.171Z,18.02
2022-08-08T02:48:28.363Z,18.02
2022-08-08T02:51:55.455Z,18.08
2022-08-08T02:55:02.133Z,19.63
2022-08-08T02:58:31.872Z,17.88
2022-08-08T03:01:58.429Z,19.70
2022-08-08T03:05:18.161Z,17.20
2022-08-08T03:08:52.025Z,20.00
2022-08-08T03:12:13.895Z,18.98
2022-08-08T03:15:55.993Z,17.83
2022-08-08T03:18:31.268Z,17.23
2022-08-08T03:21:01.747Z,19.20
2022-08-08T03:23:59.167Z,18.92
2022-08-08T03:26:32.492Z,18.40
2022-08-08T03:29:18.856Z,18.73
2022-08-08T03:32:13.010Z,18.45
2022-08-08T03:34:42.541Z,19.40
2022-08-08T03:37:59.990Z,19.60
2022-08-08T03:40:04.424Z,20.80
2022-08-08T03:42:32.857Z,21.38
2022-08-08T03:46:03.510Z,21.80
2022-08-08T03:48:02.472Z,21.23
2022-08-08T03:50:32.275Z,19.67
2022-08-08T03:53:08.221Z,19.92
2022-08-08T03:55:57.727Z,19.33
2022-08-08T03:58:37.456Z,20.00
2022-08-08T04:01:24.432Z,20.63
2022-08-08T04:03:58.426Z,20.73
2022-08-08T04:06:29.990Z,21.50
2022-08-08T04:09:10.227Z,20.30
2022-08-08T04:11:57.742Z,21.10
2022-08-08T04:14:33.946Z,20.50
2022-08-08T04:17:15.414Z,19.63
2022-08-08T04:19:51.868Z,19.65
2022-08-08T04:22:24.198Z,20.17
2022-08-08T04:24:53.103Z,19.27
2022-08-08T04:28:01.743Z,18.83
2022-08-08T04:30:18.056Z,19.92
2022-08-08T04:32:49.951Z,19.27
2022-08-08T04:35:20.316Z,21.95
2022-08-08T04:37:51.690Z,18.02
2022-08-08T04:40:24.066Z,18.90
2022-08-08T04:42:57.950Z,17.58
2022-08-08T04:45:29.601Z,17.15
2022-08-08T04:48:00.369Z,18.25
2022-08-08T04:50:37.573Z,18.77
2022-08-08T04:53:14.255Z,18.60
2022-08-08T04:55:56.828Z,18.27
2022-08-08T04:58:27.061Z,18.35
2022-08-08T05:00:56.640Z,16.83
2022-08-08T05:04:09.567Z,16.52
2022-08-08T05:06:18.459Z,17.35
2022-08-08T05:08:56.395Z,16.95
2022-08-08T05:11:39.035Z,19.42
2022-08-08T05:14:12.383Z,17.35
2022-08-08T05:16:51.536Z,18.92
2022-08-08T05:20:10.602Z,18.83
2022-08-08T05:22:17.594Z,18.80
2022-08-08T05:24:48.794Z,19.48
2022-08-08T05:27:17.735Z,20.80
2022-08-08T05:29:50.370Z,18.67
2022-08-08T05:32:24.501Z,18.08
2022-08-08T05:34:54.266Z,19.80
2022-08-08T05:37:39.414Z,19.20
2022-08-08T05:40:16.509Z,19.50
2022-08-08T05:42:49.143Z,18.85
2022-08-08T05:45:31.157Z,18.80
2022-08-08T05:48:08.755Z,19.50
2022-08-08T05:50:38.956Z,17.40
2022-08-08T05:53:54.833Z,16.92
2022-08-08T05:56:10.955Z,18.48
2022-08-08T05:58:57.168Z,19.42
2022-08-08T06:01:55.564Z,17.80
2022-08-08T06:04:27.066Z,16.95
2022-08-08T06:07:00.474Z,17.17
2022-08-08T06:09:58.021Z,16.55
2022-08-08T06:12:30.251Z,16.75
2022-08-08T06:15:02.814Z,18.05
2022-08-08T06:18:14.650Z,18.13
2022-08-08T06:20:25.563Z,17.30
2022-08-08T06:22:56.345Z,15.75
2022-08-08T06:25:33.327Z,15.35
2022-08-08T06:28:29.473Z,15.82
2022-08-08T06:31:02.298Z,15.90
2022-08-08T06:34:28.037Z,16.58
2022-08-08T06:36:53.155Z,16.23
2022-08-08T06:39:22.792Z,16.05
2022-08-08T06:41:58.687Z,15.57
2022-08-08T06:44:31.507Z,14.63
2022-08-08T06:47:01.651Z,14.13
2022-08-08T06:49:56.411Z,14.80
2022-08-08T06:52:23.536Z,15.00
2022-08-08T06:54:58.558Z,12.88
2022-08-08T06:57:29.338Z,11.82
2022-08-08T07:00:13.688Z,10.90
2022-08-08T07:02:51.218Z,10.32
2022-08-08T07:05:29.917Z,8.43
2022-08-08T07:08:13.550Z,9.25
2022-08-08T07:10:52.109Z,10.13
2022-08-08T07:13:25.098Z,9.48
2022-08-08T07:16:11.849Z,11.10
2022-08-08T07:18:57.783Z,8.93
2022-08-08T07:21:32.053Z,11.70
2022-08-08T07:24:04.944Z,11.07
2022-08-08T07:26:37.802Z,7.53
2022-08-08T07:29:08.227Z,9.05
2022-08-08T07:31:41.733Z,9.65
2022-08-08T07:34:26.638Z,10.05
2022-08-08T07:37:11.990Z,9.07
2022-08-08T07:39:55.827Z,7.97
2022-08-08T07:42:33.318Z,10.57
2022-08-08T07:45:02.902Z,10.95
2022-08-08T07:47:38.913Z,7.50
2022-08-08T07:50:09.065Z,7.35
2022-08-08T07:52:43.433Z,8.05
2022-08-08T07:55:19.831Z,6.25
2022-08-08T07:58:02.392Z,7.20
2022-08-08T08:00:38.973Z,7.18
2022-08-08T08:03:20.766Z,7.10
2022-08-08T08:05:53.346Z,6.22
2022-08-08T08:08:32.564Z,6.68
2022-08-08T08:11:01.231Z,6.70
2022-08-08T08:14:06.349Z,8.52
2022-08-08T08:16:28.387Z,7.45
2022-08-08T08:19:03.588Z,5.85
2022-08-08T08:21:52.537Z,7.10
2022-08-08T08:24:32.297Z,5.95
2022-08-08T08:27:02.705Z,6.90
2022-08-08T08:29:31.918Z,5.97
2022-08-08T08:32:03.560Z,8.82
2022-08-08T08:34:34.380Z,5.72
2022-08-08T08:37:08.109Z,5.93
2022-08-08T08:39:59.851Z,6.85
2022-08-08T08:42:31.813Z,5.05
2022-08-08T08:45:21.281Z,5.32
2022-08-08T08:47:54.219Z,6.20
2022-08-08T08:50:33.552Z,7.45
2022-08-08T08:53:54.022Z,6.57
2022-08-08T08:56:01.083Z,5.95
2022-08-08T08:58:35.599Z,5.35
2022-08-08T09:01:10.190Z,6.47
2022-08-08T09:03:47.682Z,6.97
2022-08-08T09:06:28.391Z,7.45
2022-08-08T09:09:07.382Z,4.80
2022-08-08T09:12:02.023Z,9.70
2022-08-08T09:14:42.287Z,8.00
2022-08-08T09:17:18.266Z,6.82
2022-08-08T09:21:59.250Z,6.47
2022-08-08T09:22:39.537Z,5.05
2022-08-08T09:25:10.474Z,7.50
2022-08-08T09:27:56.946Z,6.03
2022-08-08T09:30:29.744Z,6.40
2022-08-08T09:33:13.147Z,5.50
2022-08-08T09:35:51.211Z,6.65
2022-08-08T09:38:35.357Z,5.15
2022-08-08T09:42:14.628Z,6.18
2022-08-08T09:44:40.766Z,7.32
2022-08-08T09:48:02.689Z,5.28
2022-08-08T09:50:01.486Z,2.47
2022-08-08T09:52:56.370Z,3.78
2022-08-08T09:55:31.157Z,5.35
2022-08-08T09:58:25.688Z,4.43
2022-08-08T10:01:01.065Z,3.08
2022-08-08T10:03:37.926Z,4.45
2022-08-08T10:06:16.341Z,4.32
2022-08-08T10:08:46.818Z,5.78
2022-08-08T10:12:27.879Z,5.68
2022-08-08T10:14:27.760Z,7.13
2022-08-08T10:16:58.457Z,5.97
2022-08-08T10:19:38.510Z,7.25
2022-08-08T10:22:25.914Z,4.28
2022-08-08T10:25:01.559Z,5.00
2022-08-08T10:27:34.140Z,3.60
2022-08-08T10:30:05.587Z,8.10
2022-08-08T10:32:39.202Z,5.97
2022-08-08T10:36:07.295Z,6.00
2022-08-08T10:38:05.627Z,5.47
2022-08-08T10:40:34.781Z,5.38
2022-08-08T10:43:05.817Z,4.25
2022-08-08T10:45:56.773Z,6.10
2022-08-08T10:48:58.625Z,3.58
2022-08-08T10:51:24.467Z,5.47
2022-08-08T10:53:57.084Z,4.53
2022-08-08T10:56:32.515Z,6.15
2022-08-08T10:59:08.085Z,4.63
2022-08-08T11:01:40.106Z,6.05
2022-08-08T11:04:11.821Z,4.88
2022-08-08T11:06:41.871Z,6.35
2022-08-08T11:09:21.573Z,5.88
2022-08-08T11:12:05.892Z,5.53
2022-08-08T11:14:57.420Z,4.65
2022-08-08T11:17:59.907Z,5.05
2022-08-08T11:20:27.503Z,7.32
2022-08-08T11:22:59.098Z,7.15
2022-08-08T11:25:53.184Z,4.60
2022-08-08T11:28:25.781Z,5.15
2022-08-08T11:30:59.858Z,5.65
2022-08-08T11:33:51.622Z,6.47
2022-08-08T11:36:20.515Z,5.55
2022-08-08T11:38:53.897Z,6.90
2022-08-08T11:41:24.980Z,5.93
2022-08-08T11:43:58.475Z,6.60
2022-08-08T11:46:31.414Z,4.63
2022-08-08T11:49:04.146Z,5.45
2022-08-08T11:51:40.321Z,4.18
2022-08-08T11:54:31.808Z,6.53
2022-08-08T11:57:16.641Z,5.47
2022-08-08T12:00:02.046Z,6.05
2022-08-08T12:02:34.772Z,5.95
2022-08-08T12:05:07.428Z,6.55
2022-08-08T12:07:52.086Z,5.53
2022-08-08T12:10:23.853Z,6.82
2022-08-08T12:13:02.264Z,4.70
2022-08-08T12:15:39.935Z,6.05
2022-08-08T12:18:21.678Z,7.75
2022-08-08T12:20:54.817Z,6.05
2022-08-08T12:23:43.880Z,4.78
2022-08-08T12:26:28.104Z,3.72
2022-08-08T12:29:25.804Z,5.82
2022-08-08T12:32:17.228Z,6.35
2022-08-08T12:35:13.557Z,4.85
2022-08-08T12:37:48.167Z,7.97
2022-08-08T12:40:54.764Z,4.28
2022-08-08T12:43:32.655Z,7.03
2022-08-08T12:46:03.565Z,4.75
2022-08-08T12:48:37.002Z,6.75
2022-08-08T12:51:11.114Z,7.15
2022-08-08T12:53:59.224Z,6.65
2022-08-08T12:56:36.590Z,5.43
2022-08-08T12:59:17.519Z,5.68
2022-08-08T13:01:53.946Z,5.20
2022-08-08T13:04:24.918Z,6.10
2022-08-08T13:06:56.431Z,6.28
2022-08-08T13:09:57.713Z,6.57
2022-08-08T13:12:36.304Z,5.60
2022-08-08T13:15:08.126Z,7.45
2022-08-08T13:18:08.940Z,6.00
2022-08-08T13:20:27.624Z,5.53
2022-08-08T13:25:51.075Z,9.18
2022-08-08T13:28:32.895Z,6.45
2022-08-08T13:31:04.094Z,5.32
2022-08-08T13:33:41.983Z,5.82
2022-08-08T13:36:12.184Z,7.70
2022-08-08T13:38:40.922Z,4.45
2022-08-08T13:41:16.609Z,5.80
2022-08-08T13:43:50.758Z,8.55
2022-08-08T13:46:28.445Z,7.97
2022-08-08T13:50:32.079Z,7.68
2022-08-08T13:51:58.916Z,6.45
2022-08-08T13:54:31.812Z,5.45
2022-08-08T13:57:08.909Z,5.70
2022-08-08T13:59:48.436Z,7.38
2022-08-08T14:02:21.596Z,4.90
2022-08-08T14:04:57.140Z,6.30
2022-08-08T14:07:29.917Z,6.43
2022-08-08T14:10:05.005Z,7.28
2022-08-08T14:12:43.700Z,3.88
2022-08-08T14:15:31.371Z,6.70
2022-08-08T14:18:36.815Z,5.45
2022-08-08T14:21:07.963Z,8.05
2022-08-08T14:24:06.409Z,9.02
2022-08-08T14:26:33.196Z,7.50
2022-08-08T14:29:05.803Z,6.03
2022-08-08T14:32:09.588Z,7.43
2022-08-08T14:34:37.642Z,4.47
2022-08-08T14:37:08.412Z,4.82
2022-08-08T14:39:48.515Z,7.90
2022-08-08T14:42:26.795Z,4.05
2022-08-08T14:44:57.784Z,5.60
2022-08-08T14:47:36.352Z,4.28
2022-08-08T14:50:21.447Z,4.82
2022-08-08T14:53:04.281Z,6.03
2022-08-08T14:55:41.317Z,5.32
2022-08-08T14:58:16.899Z,5.40
2022-08-08T15:00:49.963Z,4.53
2022-08-08T15:03:19.798Z,6.53
2022-08-08T15:05:54.200Z,5.40
2022-08-08T15:08:35.186Z,6.05
2022-08-08T15:11:10.259Z,5.88
2022-08-08T15:14:00.451Z,5.00
2022-08-08T15:16:34.302Z,7.93
2022-08-08T15:19:05.593Z,6.20
2022-08-08T15:21:42.621Z,5.28
2022-08-08T15:24:13.462Z,4.22
2022-08-08T15:26:46.802Z,6.07
2022-08-08T15:29:22.692Z,5.25
2022-08-08T15:32:18.888Z,6.57
2022-08-08T15:34:42.689Z,5.05
2022-08-08T15:37:12.912Z,6.88
2022-08-08T15:39:41.477Z,4.18
2022-08-08T15:42:18.185Z,6.35
2022-08-08T15:44:59.002Z,4.95
2022-08-08T15:47:40.357Z,2.85
2022-08-08T15:50:50.042Z,3.15
2022-08-08T15:53:19.460Z,5.20
2022-08-08T15:55:47.687Z,2.58
2022-08-08T15:58:33.293Z,4.45
2022-08-08T16:01:08.058Z,4.90
2022-08-08T16:03:37.374Z,4.22
2022-08-08T16:06:08.145Z,3.60
2022-08-08T16:13:00.045Z,4.82
2022-08-08T16:13:20.915Z,7.90
2022-08-08T16:14:32.290Z,4.90
2022-08-08T16:17:01.861Z,4.38
2022-08-08T16:19:30.830Z,5.25
2022-08-08T16:22:30.261Z,4.88
2022-08-08T16:25:05.800Z,4.80
2022-08-08T16:27:35.378Z,4.68
2022-08-08T16:30:13.515Z,4.60
2022-08-08T16:32:43.248Z,3.90
2022-08-08T16:35:18.905Z,3.50
2022-08-08T16:37:52.886Z,6.40
2022-08-08T16:40:24.969Z,6.00
2022-08-08T16:42:57.584Z,4.57
2022-08-08T16:46:44.743Z,4.82
2022-08-08T16:48:16.753Z,4.13
2022-08-08T16:50:46.653Z,5.05
2022-08-08T16:54:59.751Z,5.03
2022-08-08T16:56:08.844Z,5.13
2022-08-08T16:58:42.789Z,4.90
2022-08-08T17:01:14.762Z,5.78
2022-08-08T17:04:00.182Z,4.68
2022-08-08T17:06:39.752Z,4.82
2022-08-08T17:09:15.872Z,7.20
2022-08-08T17:11:49.103Z,4.05
2022-08-08T17:14:27.498Z,4.78
2022-08-08T17:17:01.308Z,5.93
2022-08-08T17:19:30.261Z,5.63
2022-08-08T17:22:01.915Z,4.15
2022-08-08T17:24:33.100Z,4.60
2022-08-08T17:27:04.599Z,7.22
2022-08-08T17:29:36.454Z,3.88
2022-08-08T17:32:11.565Z,3.30
2022-08-08T17:34:59.877Z,5.50
2022-08-08T17:37:28.050Z,4.65
2022-08-08T17:40:12.975Z,5.18
2022-08-08T17:42:47.371Z,6.15
2022-08-08T17:45:23.295Z,5.57
2022-08-08T17:47:53.836Z,4.18
2022-08-08T17:50:23.792Z,4.35
2022-08-08T17:52:53.150Z,6.32
2022-08-08T17:56:06.065Z,5.13
2022-08-08T17:58:12.332Z,4.47
2022-08-08T18:00:41.247Z,6.75
2022-08-08T18:03:13.191Z,5.68
2022-08-08T18:05:48.637Z,6.63
2022-08-08T18:08:24.408Z,6.63
2022-08-08T18:11:14.440Z,6.38
2022-08-08T18:13:43.431Z,6.82
2022-08-08T18:16:12.642Z,8.05
2022-08-08T18:18:42.677Z,4.28
2022-08-08T18:21:24.962Z,3.72
2022-08-08T18:24:01.697Z,4.75
2022-08-08T18:26:33.356Z,4.00
2022-08-08T18:29:01.896Z,5.63
2022-08-08T18:31:30.398Z,4.47
2022-08-08T18:34:11.781Z,6.45
2022-08-08T18:36:47.732Z,4.72
2022-08-08T18:39:27.352Z,5.43
2022-08-08T18:42:03.651Z,7.38
2022-08-08T18:44:40.912Z,6.60
2022-08-08T18:47:10.022Z,5.45
2022-08-08T18:50:00.358Z,5.13
2022-08-08T18:52:33.955Z,6.63
2022-08-08T18:55:10.767Z,3.97
2022-08-08T18:57:45.461Z,5.80
2022-08-08T19:00:20.437Z,3.67
2022-08-08T19:02:55.488Z,5.35
2022-08-08T19:05:31.737Z,3.53
2022-08-08T19:08:10.252Z,4.00
2022-08-08T19:11:05.386Z,3.72
2022-08-08T19:14:20.712Z,3.33
2022-08-08T19:32:22.760Z,5.38
2022-08-08T19:35:25.422Z,3.60
2022-08-08T20:08:28.064Z,4.50
2022-08-08T20:11:03.261Z,5.10
2022-08-08T20:14:11.967Z,4.15
2022-08-08T20:16:21.839Z,6.35
2022-08-08T20:18:58.041Z,5.95
2022-08-08T20:21:32.027Z,5.47
2022-08-08T20:24:08.841Z,5.93
2022-08-08T20:26:41.801Z,4.93
2022-08-08T20:29:16.222Z,4.13
2022-08-08T20:32:02.742Z,6.32
2022-08-08T20:34:35.251Z,6.05
2022-08-08T20:37:07.217Z,4.70
2022-08-08T20:39:41.532Z,6.50
2022-08-08T20:42:28.811Z,5.65
2022-08-08T20:44:59.262Z,4.47
2022-08-08T20:47:36.052Z,6.72
2022-08-08T20:50:10.035Z,3.85
2022-08-08T20:52:39.945Z,5.93
2022-08-08T20:55:16.370Z,6.20
2022-08-08T20:57:54.250Z,6.50
2022-08-08T21:00:26.659Z,7.03
2022-08-08T21:02:55.109Z,5.03
2022-08-08T21:05:24.257Z,5.65
2022-08-08T21:08:07.654Z,5.10
2022-08-08T21:10:52.619Z,6.13
2022-08-08T21:13:23.459Z,5.72
2022-08-08T21:16:20.322Z,7.28
2022-08-08T21:18:57.264Z,6.25
2022-08-08T21:21:39.419Z,6.40
2022-08-08T21:24:22.287Z,5.72
2022-08-08T21:26:59.344Z,6.60
2022-08-08T21:30:03.870Z,7.30
2022-08-08T21:32:24.861Z,5.95
2022-08-08T21:34:56.954Z,5.55
2022-08-08T21:37:53.863Z,8.43
2022-08-08T21:40:31.165Z,6.03
2022-08-08T21:43:01.288Z,5.30
2022-08-08T21:47:59.658Z,6.93
2022-08-08T21:48:22.888Z,8.90
2022-08-08T21:50:58.534Z,8.68
2022-08-08T21:54:23.208Z,5.88
2022-08-08T21:56:26.033Z,6.78
2022-08-08T21:59:05.785Z,7.18
2022-08-08T22:01:41.332Z,6.40
2022-08-08T22:04:12.239Z,4.40
2022-08-08T22:06:40.988Z,5.78
2022-08-08T22:09:10.221Z,6.70
2022-08-08T22:11:58.759Z,6.43
2022-08-08T22:14:29.107Z,10.05
2022-08-08T22:17:01.197Z,7.53
2022-08-08T22:19:30.460Z,6.40
2022-08-08T22:22:18.783Z,7.00
2022-08-08T22:24:47.029Z,6.07
2022-08-08T22:27:16.228Z,6.60
2022-08-08T22:30:13.596Z,5.90
2022-08-08T22:32:42.187Z,6.68
2022-08-08T22:35:23.582Z,6.82
2022-08-08T22:37:54.644Z,6.03
2022-08-08T22:40:24.113Z,5.82
2022-08-08T22:42:59.927Z,6.68
2022-08-08T22:45:29.946Z,6.30
2022-08-08T22:47:58.303Z,6.57
2022-08-08T22:50:28.521Z,6.80
2022-08-08T22:53:22.510Z,5.95
2022-08-08T22:55:58.724Z,8.27
2022-08-08T22:58:31.241Z,6.65
2022-08-08T23:02:01.314Z,7.82
2022-08-08T23:03:54.337Z,9.48
2022-08-08T23:06:24.252Z,8.88
2022-08-08T23:08:55.737Z,7.10
2022-08-08T23:11:30.766Z,7.00
2022-08-08T23:14:18.207Z,6.85
2022-08-08T23:16:56.105Z,6.50
2022-08-08T23:19:31.001Z,11.50
2022-08-08T23:22:04.374Z,9.80
2022-08-08T23:24:36.694Z,7.85
2022-08-08T23:27:10.563Z,8.48
2022-08-08T23:29:39.648Z,9.32
2022-08-08T23:32:11.754Z,9.15
2022-08-08T23:34:49.731Z,8.85
2022-08-08T23:37:54.252Z,7.22
2022-08-08T23:40:16.919Z,10.05
2022-08-08T23:42:51.464Z,9.57
2022-08-08T23:48:59.629Z,9.15
2022-08-08T23:49:02.235Z,10.05
2022-08-08T23:50:58.099Z,9.30
2022-08-08T23:54:01.365Z,8.80
2022-08-08T23:56:32.077Z,10.55
2022-08-08T23:59:02.610Z,9.48
